sensor_id;sensor_type;location;lat;lon;timestamp;P1;durP1;ratioP1;P2;durP2;ratioP2
18302;SDS011;9277;37.980;23.748;2023-03-14T00:00:25;2.00;;;1.80;;
18302;SDS011;9277;37.980;23.748;2023-03-14T00:02:52;3.90;;;1.98;;
18302;SDS011;9277;37.980;23.748;2023-03-14T00:05:19;2.63;;;2.13;;
18302;SDS011;9277;37.980;23.748;2023-03-14T00:07:46;3.53;;;1.90;;
18302;SDS011;9277;37.980;23.748;2023-03-14T00:10:13;2.15;;;1.88;;
18302;SDS011;9277;37.980;23.748;2023-03-14T00:12:40;5.63;;;1.70;;
18302;SDS011;9277;37.980;23.748;2023-03-14T00:15:07;2.25;;;1.67;;
18302;SDS011;9277;37.980;23.748;2023-03-14T00:17:36;1.75;;;1.60;;
18302;SDS011;9277;37.980;23.748;2023-03-14T00:20:03;3.50;;;1.67;;
18302;SDS011;9277;37.980;23.748;2023-03-14T00:22:33;2.72;;;1.70;;
18302;SDS011;9277;37.980;23.748;2023-03-14T00:25:00;3.35;;;1.40;;
18302;SDS011;9277;37.980;23.748;2023-03-14T00:27:27;2.03;;;1.60;;
18302;SDS011;9277;37.980;23.748;2023-03-14T00:29:54;1.80;;;1.70;;
18302;SDS011;9277;37.980;23.748;2023-03-14T00:32:20;2.40;;;1.58;;
18302;SDS011;9277;37.980;23.748;2023-03-14T00:34:48;2.05;;;1.88;;
18302;SDS011;9277;37.980;23.748;2023-03-14T00:37:15;1.60;;;1.50;;
18302;SDS011;9277;37.980;23.748;2023-03-14T00:39:42;2.08;;;1.83;;
18302;SDS011;9277;37.980;23.748;2023-03-14T00:42:09;2.08;;;1.65;;
18302;SDS011;9277;37.980;23.748;2023-03-14T00:44:35;2.03;;;1.70;;
18302;SDS011;9277;37.980;23.748;2023-03-14T00:47:02;2.13;;;1.92;;
18302;SDS011;9277;37.980;23.748;2023-03-14T00:49:29;1.35;;;1.35;;
18302;SDS011;9277;37.980;23.748;2023-03-14T00:51:57;5.95;;;1.50;;
18302;SDS011;9277;37.980;23.748;2023-03-14T00:54:24;1.42;;;1.38;;
18302;SDS011;9277;37.980;23.748;2023-03-14T00:56:51;1.73;;;1.63;;
18302;SDS011;9277;37.980;23.748;2023-03-14T00:59:19;1.55;;;1.45;;
18302;SDS011;9277;37.980;23.748;2023-03-14T01:01:46;1.50;;;1.40;;
18302;SDS011;9277;37.980;23.748;2023-03-14T01:04:13;1.50;;;1.45;;
18302;SDS011;9277;37.980;23.748;2023-03-14T01:06:42;2.35;;;1.60;;
18302;SDS011;9277;37.980;23.748;2023-03-14T01:09:10;3.60;;;1.45;;
18302;SDS011;9277;37.980;23.748;2023-03-14T01:11:37;1.85;;;1.55;;
18302;SDS011;9277;37.980;23.748;2023-03-14T01:14:04;1.60;;;1.50;;
18302;SDS011;9277;37.980;23.748;2023-03-14T01:16:32;1.75;;;1.30;;
18302;SDS011;9277;37.980;23.748;2023-03-14T01:18:59;1.35;;;1.23;;
18302;SDS011;9277;37.980;23.748;2023-03-14T01:21:26;5.00;;;1.48;;
18302;SDS011;9277;37.980;23.748;2023-03-14T01:23:55;2.65;;;1.67;;
18302;SDS011;9277;37.980;23.748;2023-03-14T01:26:25;1.70;;;1.60;;
18302;SDS011;9277;37.980;23.748;2023-03-14T01:28:52;7.88;;;1.67;;
18302;SDS011;9277;37.980;23.748;2023-03-14T01:31:20;2.92;;;1.38;;
18302;SDS011;9277;37.980;23.748;2023-03-14T01:33:48;6.88;;;1.38;;
18302;SDS011;9277;37.980;23.748;2023-03-14T01:36:15;1.73;;;1.50;;
18302;SDS011;9277;37.980;23.748;2023-03-14T01:38:44;3.08;;;1.50;;
18302;SDS011;9277;37.980;23.748;2023-03-14T01:41:12;2.60;;;1.63;;
18302;SDS011;9277;37.980;23.748;2023-03-14T01:43:41;3.00;;;1.50;;
18302;SDS011;9277;37.980;23.748;2023-03-14T01:46:19;1.35;;;1.30;;
18302;SDS011;9277;37.980;23.748;2023-03-14T01:48:47;1.88;;;1.77;;
18302;SDS011;9277;37.980;23.748;2023-03-14T01:51:15;1.42;;;1.33;;
18302;SDS011;9277;37.980;23.748;2023-03-14T01:53:44;6.38;;;2.00;;
18302;SDS011;9277;37.980;23.748;2023-03-14T01:56:11;1.60;;;1.50;;
18302;SDS011;9277;37.980;23.748;2023-03-14T01:58:39;1.73;;;1.33;;
18302;SDS011;9277;37.980;23.748;2023-03-14T02:01:09;1.50;;;1.40;;
18302;SDS011;9277;37.980;23.748;2023-03-14T02:03:36;1.73;;;1.55;;
18302;SDS011;9277;37.980;23.748;2023-03-14T02:06:06;1.73;;;1.63;;
18302;SDS011;9277;37.980;23.748;2023-03-14T02:08:34;4.95;;;1.50;;
18302;SDS011;9277;37.980;23.748;2023-03-14T02:11:02;1.83;;;1.45;;
18302;SDS011;9277;37.980;23.748;2023-03-14T02:13:29;3.30;;;1.40;;
18302;SDS011;9277;37.980;23.748;2023-03-14T02:15:56;3.08;;;1.63;;
18302;SDS011;9277;37.980;23.748;2023-03-14T02:18:25;1.77;;;1.63;;
18302;SDS011;9277;37.980;23.748;2023-03-14T02:20:53;1.45;;;1.40;;
18302;SDS011;9277;37.980;23.748;2023-03-14T02:23:24;1.52;;;1.42;;
18302;SDS011;9277;37.980;23.748;2023-03-14T02:25:54;1.40;;;1.30;;
18302;SDS011;9277;37.980;23.748;2023-03-14T02:28:26;2.03;;;1.92;;
18302;SDS011;9277;37.980;23.748;2023-03-14T02:30:53;1.73;;;1.60;;
18302;SDS011;9277;37.980;23.748;2023-03-14T02:33:20;2.92;;;1.67;;
18302;SDS011;9277;37.980;23.748;2023-03-14T02:35:50;1.45;;;1.35;;
18302;SDS011;9277;37.980;23.748;2023-03-14T02:38:19;1.83;;;1.73;;
18302;SDS011;9277;37.980;23.748;2023-03-14T02:40:47;1.50;;;1.40;;
18302;SDS011;9277;37.980;23.748;2023-03-14T02:43:14;1.73;;;1.63;;
18302;SDS011;9277;37.980;23.748;2023-03-14T02:45:43;4.07;;;1.80;;
18302;SDS011;9277;37.980;23.748;2023-03-14T02:48:14;1.55;;;1.40;;
18302;SDS011;9277;37.980;23.748;2023-03-14T02:50:42;1.60;;;1.50;;
18302;SDS011;9277;37.980;23.748;2023-03-14T02:53:11;1.83;;;1.73;;
18302;SDS011;9277;37.980;23.748;2023-03-14T02:55:38;2.28;;;1.55;;
18302;SDS011;9277;37.980;23.748;2023-03-14T02:58:05;1.65;;;1.55;;
18302;SDS011;9277;37.980;23.748;2023-03-14T03:00:31;2.05;;;1.58;;
18302;SDS011;9277;37.980;23.748;2023-03-14T03:03:00;1.42;;;1.40;;
18302;SDS011;9277;37.980;23.748;2023-03-14T03:05:27;1.65;;;1.42;;
18302;SDS011;9277;37.980;23.748;2023-03-14T03:07:55;1.45;;;1.42;;
18302;SDS011;9277;37.980;23.748;2023-03-14T03:10:22;2.03;;;1.83;;
18302;SDS011;9277;37.980;23.748;2023-03-14T03:12:49;2.28;;;1.50;;
18302;SDS011;9277;37.980;23.748;2023-03-14T03:15:16;4.18;;;1.52;;
18302;SDS011;9277;37.980;23.748;2023-03-14T03:17:43;3.20;;;1.60;;
18302;SDS011;9277;37.980;23.748;2023-03-14T03:20:11;2.67;;;1.67;;
18302;SDS011;9277;37.980;23.748;2023-03-14T03:22:38;1.70;;;1.60;;
18302;SDS011;9277;37.980;23.748;2023-03-14T03:25:05;2.92;;;1.58;;
18302;SDS011;9277;37.980;23.748;2023-03-14T03:27:36;1.75;;;1.65;;
18302;SDS011;9277;37.980;23.748;2023-03-14T03:30:04;5.65;;;2.42;;
18302;SDS011;9277;37.980;23.748;2023-03-14T03:32:31;1.90;;;1.80;;
18302;SDS011;9277;37.980;23.748;2023-03-14T03:34:57;2.13;;;1.70;;
18302;SDS011;9277;37.980;23.748;2023-03-14T03:37:28;3.10;;;1.60;;
18302;SDS011;9277;37.980;23.748;2023-03-14T03:39:56;1.80;;;1.70;;
18302;SDS011;9277;37.980;23.748;2023-03-14T03:42:29;4.63;;;1.95;;
18302;SDS011;9277;37.980;23.748;2023-03-14T03:44:58;4.72;;;2.20;;
18302;SDS011;9277;37.980;23.748;2023-03-14T03:47:26;1.77;;;1.67;;
18302;SDS011;9277;37.980;23.748;2023-03-14T03:49:52;3.55;;;1.80;;
18302;SDS011;9277;37.980;23.748;2023-03-14T03:52:20;2.03;;;1.83;;
18302;SDS011;9277;37.980;23.748;2023-03-14T03:54:48;8.23;;;1.95;;
18302;SDS011;9277;37.980;23.748;2023-03-14T03:57:15;1.65;;;1.55;;
18302;SDS011;9277;37.980;23.748;2023-03-14T03:59:43;4.60;;;1.85;;
18302;SDS011;9277;37.980;23.748;2023-03-14T04:02:11;2.58;;;1.90;;
18302;SDS011;9277;37.980;23.748;2023-03-14T04:04:38;4.30;;;2.05;;
18302;SDS011;9277;37.980;23.748;2023-03-14T04:07:05;2.10;;;1.70;;
18302;SDS011;9277;37.980;23.748;2023-03-14T04:09:32;2.00;;;1.70;;
18302;SDS011;9277;37.980;23.748;2023-03-14T04:12:00;2.20;;;1.98;;
18302;SDS011;9277;37.980;23.748;2023-03-14T04:14:27;2.47;;;2.00;;
18302;SDS011;9277;37.980;23.748;2023-03-14T04:16:54;4.50;;;2.65;;
18302;SDS011;9277;37.980;23.748;2023-03-14T04:19:23;3.85;;;1.92;;
18302;SDS011;9277;37.980;23.748;2023-03-14T04:21:49;2.42;;;2.08;;
18302;SDS011;9277;37.980;23.748;2023-03-14T04:24:16;1.92;;;1.83;;
18302;SDS011;9277;37.980;23.748;2023-03-14T04:26:43;2.35;;;1.80;;
18302;SDS011;9277;37.980;23.748;2023-03-14T04:29:11;1.98;;;1.63;;
18302;SDS011;9277;37.980;23.748;2023-03-14T04:31:39;2.05;;;1.90;;
18302;SDS011;9277;37.980;23.748;2023-03-14T04:34:05;2.70;;;1.95;;
18302;SDS011;9277;37.980;23.748;2023-03-14T04:36:33;4.28;;;2.22;;
18302;SDS011;9277;37.980;23.748;2023-03-14T04:39:00;1.73;;;1.60;;
18302;SDS011;9277;37.980;23.748;2023-03-14T04:41:26;3.42;;;1.80;;
18302;SDS011;9277;37.980;23.748;2023-03-14T04:43:54;2.20;;;2.00;;
18302;SDS011;9277;37.980;23.748;2023-03-14T04:46:23;2.35;;;2.05;;
18302;SDS011;9277;37.980;23.748;2023-03-14T04:48:50;1.90;;;1.80;;
18302;SDS011;9277;37.980;23.748;2023-03-14T04:51:17;2.60;;;1.98;;
18302;SDS011;9277;37.980;23.748;2023-03-14T04:53:43;3.55;;;1.73;;
18302;SDS011;9277;37.980;23.748;2023-03-14T04:56:10;3.20;;;1.80;;
18302;SDS011;9277;37.980;23.748;2023-03-14T04:58:38;2.00;;;1.90;;
18302;SDS011;9277;37.980;23.748;2023-03-14T05:01:05;2.13;;;1.92;;
18302;SDS011;9277;37.980;23.748;2023-03-14T05:03:38;2.20;;;1.98;;
18302;SDS011;9277;37.980;23.748;2023-03-14T05:06:05;1.92;;;1.67;;
18302;SDS011;9277;37.980;23.748;2023-03-14T05:08:32;1.98;;;1.80;;
18302;SDS011;9277;37.980;23.748;2023-03-14T05:11:01;2.70;;;1.80;;
18302;SDS011;9277;37.980;23.748;2023-03-14T05:13:31;2.60;;;2.03;;
18302;SDS011;9277;37.980;23.748;2023-03-14T05:16:05;3.58;;;2.10;;
18302;SDS011;9277;37.980;23.748;2023-03-14T05:18:32;4.22;;;2.30;;
18302;SDS011;9277;37.980;23.748;2023-03-14T05:21:00;19.70;;;2.50;;
18302;SDS011;9277;37.980;23.748;2023-03-14T05:23:27;3.22;;;2.63;;
18302;SDS011;9277;37.980;23.748;2023-03-14T05:25:57;2.30;;;1.95;;
18302;SDS011;9277;37.980;23.748;2023-03-14T05:28:24;5.93;;;2.40;;
18302;SDS011;9277;37.980;23.748;2023-03-14T05:30:52;3.95;;;2.30;;
18302;SDS011;9277;37.980;23.748;2023-03-14T05:33:18;3.00;;;2.10;;
18302;SDS011;9277;37.980;23.748;2023-03-14T05:35:45;2.83;;;2.28;;
18302;SDS011;9277;37.980;23.748;2023-03-14T05:38:13;5.32;;;2.10;;
18302;SDS011;9277;37.980;23.748;2023-03-14T05:40:40;4.35;;;2.45;;
18302;SDS011;9277;37.980;23.748;2023-03-14T05:43:10;11.50;;;2.92;;
18302;SDS011;9277;37.980;23.748;2023-03-14T05:45:37;3.40;;;2.40;;
18302;SDS011;9277;37.980;23.748;2023-03-14T05:48:04;5.85;;;2.60;;
18302;SDS011;9277;37.980;23.748;2023-03-14T05:50:31;5.90;;;2.53;;
18302;SDS011;9277;37.980;23.748;2023-03-14T05:52:58;5.22;;;2.42;;
18302;SDS011;9277;37.980;23.748;2023-03-14T05:55:27;6.28;;;2.75;;
18302;SDS011;9277;37.980;23.748;2023-03-14T05:57:54;3.85;;;2.40;;
18302;SDS011;9277;37.980;23.748;2023-03-14T06:00:21;3.65;;;2.70;;
18302;SDS011;9277;37.980;23.748;2023-03-14T06:02:48;6.22;;;2.60;;
18302;SDS011;9277;37.980;23.748;2023-03-14T06:05:15;4.80;;;2.17;;
18302;SDS011;9277;37.980;23.748;2023-03-14T06:07:44;3.45;;;2.83;;
18302;SDS011;9277;37.980;23.748;2023-03-14T06:10:11;3.58;;;2.80;;
18302;SDS011;9277;37.980;23.748;2023-03-14T06:12:40;2.60;;;2.40;;
18302;SDS011;9277;37.980;23.748;2023-03-14T06:15:07;5.63;;;2.50;;
18302;SDS011;9277;37.980;23.748;2023-03-14T06:17:34;5.70;;;2.30;;
18302;SDS011;9277;37.980;23.748;2023-03-14T06:20:03;3.33;;;2.50;;
18302;SDS011;9277;37.980;23.748;2023-03-14T06:22:30;2.72;;;2.40;;
18302;SDS011;9277;37.980;23.748;2023-03-14T06:24:57;2.35;;;2.10;;
18302;SDS011;9277;37.980;23.748;2023-03-14T06:27:24;4.78;;;2.22;;
18302;SDS011;9277;37.980;23.748;2023-03-14T06:29:53;2.13;;;2.03;;
18302;SDS011;9277;37.980;23.748;2023-03-14T06:32:22;2.47;;;2.28;;
18302;SDS011;9277;37.980;23.748;2023-03-14T06:34:49;2.35;;;2.15;;
18302;SDS011;9277;37.980;23.748;2023-03-14T06:37:16;3.03;;;2.38;;
18302;SDS011;9277;37.980;23.748;2023-03-14T06:39:43;2.97;;;2.05;;
18302;SDS011;9277;37.980;23.748;2023-03-14T06:42:10;2.63;;;2.40;;
18302;SDS011;9277;37.980;23.748;2023-03-14T06:44:37;3.80;;;2.08;;
18302;SDS011;9277;37.980;23.748;2023-03-14T06:47:05;7.03;;;2.20;;
18302;SDS011;9277;37.980;23.748;2023-03-14T06:49:32;3.70;;;2.55;;
18302;SDS011;9277;37.980;23.748;2023-03-14T06:51:58;3.67;;;2.40;;
18302;SDS011;9277;37.980;23.748;2023-03-14T06:54:25;5.05;;;2.42;;
18302;SDS011;9277;37.980;23.748;2023-03-14T06:56:52;4.43;;;2.03;;
18302;SDS011;9277;37.980;23.748;2023-03-14T06:59:19;6.63;;;2.50;;
18302;SDS011;9277;37.980;23.748;2023-03-14T07:01:47;3.25;;;2.22;;
18302;SDS011;9277;37.980;23.748;2023-03-14T07:04:17;11.10;;;3.17;;
18302;SDS011;9277;37.980;23.748;2023-03-14T07:06:44;5.10;;;2.00;;
18302;SDS011;9277;37.980;23.748;2023-03-14T07:09:11;4.18;;;2.10;;
18302;SDS011;9277;37.980;23.748;2023-03-14T07:11:38;2.67;;;1.98;;
18302;SDS011;9277;37.980;23.748;2023-03-14T07:14:05;3.83;;;2.13;;
18302;SDS011;9277;37.980;23.748;2023-03-14T07:16:33;2.33;;;1.80;;
18302;SDS011;9277;37.980;23.748;2023-03-14T07:19:00;2.15;;;1.90;;
18302;SDS011;9277;37.980;23.748;2023-03-14T07:21:29;1.77;;;1.67;;
18302;SDS011;9277;37.980;23.748;2023-03-14T07:23:57;3.42;;;1.95;;
18302;SDS011;9277;37.980;23.748;2023-03-14T07:26:24;1.80;;;1.63;;
18302;SDS011;9277;37.980;23.748;2023-03-14T07:28:50;3.15;;;1.80;;
18302;SDS011;9277;37.980;23.748;2023-03-14T07:31:18;3.53;;;1.67;;
18302;SDS011;9277;37.980;23.748;2023-03-14T07:33:45;2.08;;;1.60;;
18302;SDS011;9277;37.980;23.748;2023-03-14T07:36:12;4.03;;;1.90;;
18302;SDS011;9277;37.980;23.748;2023-03-14T07:38:40;3.55;;;1.48;;
18302;SDS011;9277;37.980;23.748;2023-03-14T07:41:07;2.92;;;1.88;;
18302;SDS011;9277;37.980;23.748;2023-03-14T07:43:33;1.67;;;1.50;;
18302;SDS011;9277;37.980;23.748;2023-03-14T07:46:02;2.33;;;1.38;;
18302;SDS011;9277;37.980;23.748;2023-03-14T07:48:30;2.25;;;1.92;;
18302;SDS011;9277;37.980;23.748;2023-03-14T07:50:57;1.75;;;1.65;;
18302;SDS011;9277;37.980;23.748;2023-03-14T07:53:24;1.73;;;1.60;;
18302;SDS011;9277;37.980;23.748;2023-03-14T07:55:53;1.95;;;1.80;;
18302;SDS011;9277;37.980;23.748;2023-03-14T07:58:20;2.85;;;1.80;;
18302;SDS011;9277;37.980;23.748;2023-03-14T08:00:48;3.83;;;2.10;;
18302;SDS011;9277;37.980;23.748;2023-03-14T08:03:15;4.07;;;1.58;;
18302;SDS011;9277;37.980;23.748;2023-03-14T08:05:43;3.10;;;1.90;;
18302;SDS011;9277;37.980;23.748;2023-03-14T08:08:10;1.88;;;1.70;;
18302;SDS011;9277;37.980;23.748;2023-03-14T08:10:37;2.80;;;2.10;;
18302;SDS011;9277;37.980;23.748;2023-03-14T08:13:05;2.38;;;1.70;;
18302;SDS011;9277;37.980;23.748;2023-03-14T08:15:32;4.40;;;1.88;;
18302;SDS011;9277;37.980;23.748;2023-03-14T08:17:59;3.00;;;1.60;;
18302;SDS011;9277;37.980;23.748;2023-03-14T08:20:27;1.80;;;1.70;;
18302;SDS011;9277;37.980;23.748;2023-03-14T08:22:55;2.63;;;1.92;;
18302;SDS011;9277;37.980;23.748;2023-03-14T08:25:22;4.68;;;1.90;;
18302;SDS011;9277;37.980;23.748;2023-03-14T08:27:49;1.80;;;1.70;;
18302;SDS011;9277;37.980;23.748;2023-03-14T08:30:18;3.90;;;2.05;;
18302;SDS011;9277;37.980;23.748;2023-03-14T08:32:45;2.00;;;1.65;;
18302;SDS011;9277;37.980;23.748;2023-03-14T08:35:12;3.00;;;1.90;;
18302;SDS011;9277;37.980;23.748;2023-03-14T08:37:40;2.05;;;1.85;;
18302;SDS011;9277;37.980;23.748;2023-03-14T08:40:08;1.83;;;1.70;;
18302;SDS011;9277;37.980;23.748;2023-03-14T08:42:35;2.15;;;1.70;;
18302;SDS011;9277;37.980;23.748;2023-03-14T08:45:02;1.70;;;1.60;;
18302;SDS011;9277;37.980;23.748;2023-03-14T08:47:30;3.67;;;1.67;;
18302;SDS011;9277;37.980;23.748;2023-03-14T08:49:57;2.47;;;1.60;;
18302;SDS011;9277;37.980;23.748;2023-03-14T08:52:24;1.73;;;1.63;;
18302;SDS011;9277;37.980;23.748;2023-03-14T08:54:51;1.95;;;1.60;;
18302;SDS011;9277;37.980;23.748;2023-03-14T08:57:18;3.33;;;1.73;;
18302;SDS011;9277;37.980;23.748;2023-03-14T08:59:46;1.45;;;1.40;;
18302;SDS011;9277;37.980;23.748;2023-03-14T09:02:14;3.13;;;1.80;;
18302;SDS011;9277;37.980;23.748;2023-03-14T09:04:42;1.80;;;1.70;;
18302;SDS011;9277;37.980;23.748;2023-03-14T09:07:09;2.35;;;1.67;;
18302;SDS011;9277;37.980;23.748;2023-03-14T09:09:36;2.78;;;1.55;;
18302;SDS011;9277;37.980;23.748;2023-03-14T09:12:03;11.88;;;2.25;;
18302;SDS011;9277;37.980;23.748;2023-03-14T09:14:30;2.55;;;1.85;;
18302;SDS011;9277;37.980;23.748;2023-03-14T09:16:57;1.90;;;1.77;;
18302;SDS011;9277;37.980;23.748;2023-03-14T09:19:23;3.42;;;1.80;;
18302;SDS011;9277;37.980;23.748;2023-03-14T09:21:52;4.10;;;2.00;;
18302;SDS011;9277;37.980;23.748;2023-03-14T09:24:20;2.28;;;1.85;;
18302;SDS011;9277;37.980;23.748;2023-03-14T09:26:46;2.40;;;2.10;;
18302;SDS011;9277;37.980;23.748;2023-03-14T09:29:14;6.50;;;2.25;;
18302;SDS011;9277;37.980;23.748;2023-03-14T09:31:42;11.48;;;2.20;;
18302;SDS011;9277;37.980;23.748;2023-03-14T09:34:09;6.47;;;2.42;;
18302;SDS011;9277;37.980;23.748;2023-03-14T09:36:36;2.30;;;1.88;;
18302;SDS011;9277;37.980;23.748;2023-03-14T09:39:06;3.20;;;1.98;;
18302;SDS011;9277;37.980;23.748;2023-03-14T09:41:33;1.50;;;1.38;;
18302;SDS011;9277;37.980;23.748;2023-03-14T09:44:02;3.00;;;1.60;;
18302;SDS011;9277;37.980;23.748;2023-03-14T09:46:31;1.70;;;1.60;;
18302;SDS011;9277;37.980;23.748;2023-03-14T09:49:09;3.42;;;1.67;;
18302;SDS011;9277;37.980;23.748;2023-03-14T09:51:38;2.80;;;1.60;;
18302;SDS011;9277;37.980;23.748;2023-03-14T09:54:08;3.15;;;2.00;;
18302;SDS011;9277;37.980;23.748;2023-03-14T09:56:44;3.05;;;1.70;;
18302;SDS011;9277;37.980;23.748;2023-03-14T09:59:11;4.47;;;1.52;;
18302;SDS011;9277;37.980;23.748;2023-03-14T10:01:39;3.97;;;1.90;;
18302;SDS011;9277;37.980;23.748;2023-03-14T10:04:09;1.90;;;1.70;;
18302;SDS011;9277;37.980;23.748;2023-03-14T10:06:38;1.60;;;1.50;;
18302;SDS011;9277;37.980;23.748;2023-03-14T10:09:09;3.50;;;2.20;;
18302;SDS011;9277;37.980;23.748;2023-03-14T10:11:38;4.32;;;1.70;;
18302;SDS011;9277;37.980;23.748;2023-03-14T10:14:08;4.00;;;1.95;;
18302;SDS011;9277;37.980;23.748;2023-03-14T10:16:40;3.85;;;1.88;;
18302;SDS011;9277;37.980;23.748;2023-03-14T10:19:09;3.60;;;1.70;;
18302;SDS011;9277;37.980;23.748;2023-03-14T10:21:38;2.47;;;1.65;;
18302;SDS011;9277;37.980;23.748;2023-03-14T10:26:54;5.15;;;1.92;;
18302;SDS011;9277;37.980;23.748;2023-03-14T10:29:23;2.78;;;1.50;;
18302;SDS011;9277;37.980;23.748;2023-03-14T10:31:50;3.03;;;1.58;;
18302;SDS011;9277;37.980;23.748;2023-03-14T10:34:21;3.47;;;1.77;;
18302;SDS011;9277;37.980;23.748;2023-03-14T10:36:51;1.80;;;1.70;;
18302;SDS011;9277;37.980;23.748;2023-03-14T10:39:36;4.03;;;1.50;;
18302;SDS011;9277;37.980;23.748;2023-03-14T10:42:11;1.85;;;1.52;;
18302;SDS011;9277;37.980;23.748;2023-03-14T10:44:38;2.72;;;1.65;;
18302;SDS011;9277;37.980;23.748;2023-03-14T10:47:06;1.63;;;1.52;;
18302;SDS011;9277;37.980;23.748;2023-03-14T10:49:33;4.82;;;1.83;;
18302;SDS011;9277;37.980;23.748;2023-03-14T10:52:14;2.45;;;1.80;;
18302;SDS011;9277;37.980;23.748;2023-03-14T10:54:41;6.72;;;2.10;;
18302;SDS011;9277;37.980;23.748;2023-03-14T10:57:15;4.30;;;1.88;;
18302;SDS011;9277;37.980;23.748;2023-03-14T10:59:42;3.50;;;2.05;;
18302;SDS011;9277;37.980;23.748;2023-03-14T11:05:03;1.70;;;1.60;;
18302;SDS011;9277;37.980;23.748;2023-03-14T11:07:35;6.13;;;2.15;;
18302;SDS011;9277;37.980;23.748;2023-03-14T11:10:07;1.58;;;1.48;;
18302;SDS011;9277;37.980;23.748;2023-03-14T11:12:39;5.13;;;2.33;;
18302;SDS011;9277;37.980;23.748;2023-03-14T11:15:11;4.25;;;1.80;;
18302;SDS011;9277;37.980;23.748;2023-03-14T11:17:41;4.93;;;1.73;;
18302;SDS011;9277;37.980;23.748;2023-03-14T11:20:17;1.92;;;1.83;;
18302;SDS011;9277;37.980;23.748;2023-03-14T11:22:52;2.88;;;1.90;;
18302;SDS011;9277;37.980;23.748;2023-03-14T11:25:23;2.03;;;1.85;;
18302;SDS011;9277;37.980;23.748;2023-03-14T11:27:55;1.55;;;1.50;;
18302;SDS011;9277;37.980;23.748;2023-03-14T11:30:30;3.63;;;1.90;;
18302;SDS011;9277;37.980;23.748;2023-03-14T11:33:01;3.20;;;2.08;;
18302;SDS011;9277;37.980;23.748;2023-03-14T11:35:30;8.20;;;2.38;;
18302;SDS011;9277;37.980;23.748;2023-03-14T11:38:02;3.85;;;2.10;;
18302;SDS011;9277;37.980;23.748;2023-03-14T11:40:32;2.58;;;2.10;;
18302;SDS011;9277;37.980;23.748;2023-03-14T11:43:06;7.38;;;2.33;;
18302;SDS011;9277;37.980;23.748;2023-03-14T11:45:36;5.78;;;2.90;;
18302;SDS011;9277;37.980;23.748;2023-03-14T11:50:57;3.20;;;2.17;;
18302;SDS011;9277;37.980;23.748;2023-03-14T11:53:29;3.13;;;2.33;;
18302;SDS011;9277;37.980;23.748;2023-03-14T11:56:00;4.63;;;2.20;;
18302;SDS011;9277;37.980;23.748;2023-03-14T11:58:29;2.60;;;2.40;;
18302;SDS011;9277;37.980;23.748;2023-03-14T12:00:57;3.55;;;2.42;;
18302;SDS011;9277;37.980;23.748;2023-03-14T12:03:29;2.80;;;2.33;;
18302;SDS011;9277;37.980;23.748;2023-03-14T12:06:00;3.25;;;2.58;;
18302;SDS011;9277;37.980;23.748;2023-03-14T12:08:47;5.60;;;2.30;;
18302;SDS011;9277;37.980;23.748;2023-03-14T12:11:29;2.00;;;1.90;;
18302;SDS011;9277;37.980;23.748;2023-03-14T12:13:58;3.08;;;2.28;;
18302;SDS011;9277;37.980;23.748;2023-03-14T12:16:33;4.25;;;2.15;;
18302;SDS011;9277;37.980;23.748;2023-03-14T12:21:56;2.72;;;2.28;;
18302;SDS011;9277;37.980;23.748;2023-03-14T12:24:24;2.30;;;2.10;;
18302;SDS011;9277;37.980;23.748;2023-03-14T12:26:53;2.35;;;2.15;;
18302;SDS011;9277;37.980;23.748;2023-03-14T12:29:22;5.80;;;2.33;;
18302;SDS011;9277;37.980;23.748;2023-03-14T12:31:50;3.60;;;2.28;;
18302;SDS011;9277;37.980;23.748;2023-03-14T12:34:32;5.50;;;3.10;;
18302;SDS011;9277;37.980;23.748;2023-03-14T12:37:04;3.45;;;2.22;;
18302;SDS011;9277;37.980;23.748;2023-03-14T12:39:37;4.75;;;2.35;;
18302;SDS011;9277;37.980;23.748;2023-03-14T12:42:09;9.07;;;2.20;;
18302;SDS011;9277;37.980;23.748;2023-03-14T12:50:15;3.35;;;2.63;;
18302;SDS011;9277;37.980;23.748;2023-03-14T12:52:45;3.03;;;2.50;;
18302;SDS011;9277;37.980;23.748;2023-03-14T12:55:16;4.80;;;2.83;;
18302;SDS011;9277;37.980;23.748;2023-03-14T12:57:48;2.50;;;2.22;;
18302;SDS011;9277;37.980;23.748;2023-03-14T13:00:19;6.60;;;3.03;;
18302;SDS011;9277;37.980;23.748;2023-03-14T13:02:49;4.18;;;2.88;;
18302;SDS011;9277;37.980;23.748;2023-03-14T13:05:18;5.60;;;2.10;;
18302;SDS011;9277;37.980;23.748;2023-03-14T13:10:30;6.72;;;2.78;;
18302;SDS011;9277;37.980;23.748;2023-03-14T13:13:13;2.25;;;2.05;;
18302;SDS011;9277;37.980;23.748;2023-03-14T13:15:42;4.22;;;2.33;;
18302;SDS011;9277;37.980;23.748;2023-03-14T13:18:12;6.28;;;1.95;;
18302;SDS011;9277;37.980;23.748;2023-03-14T13:20:44;2.40;;;2.20;;
18302;SDS011;9277;37.980;23.748;2023-03-14T13:23:20;2.47;;;2.28;;
18302;SDS011;9277;37.980;23.748;2023-03-14T13:25:47;4.28;;;2.30;;
18302;SDS011;9277;37.980;23.748;2023-03-14T13:28:14;2.47;;;2.20;;
18302;SDS011;9277;37.980;23.748;2023-03-14T13:30:43;5.43;;;2.03;;
18302;SDS011;9277;37.980;23.748;2023-03-14T13:33:14;3.40;;;1.83;;
18302;SDS011;9277;37.980;23.748;2023-03-14T13:35:43;9.93;;;2.05;;
18302;SDS011;9277;37.980;23.748;2023-03-14T13:38:15;2.38;;;2.08;;
18302;SDS011;9277;37.980;23.748;2023-03-14T13:40:43;3.20;;;2.10;;
18302;SDS011;9277;37.980;23.748;2023-03-14T13:43:13;5.30;;;2.72;;
18302;SDS011;9277;37.980;23.748;2023-03-14T13:45:44;4.53;;;2.72;;
18302;SDS011;9277;37.980;23.748;2023-03-14T13:48:13;2.78;;;2.00;;
18302;SDS011;9277;37.980;23.748;2023-03-14T13:50:46;4.60;;;2.47;;
18302;SDS011;9277;37.980;23.748;2023-03-14T13:53:18;3.85;;;2.05;;
18302;SDS011;9277;37.980;23.748;2023-03-14T13:55:48;7.25;;;2.30;;
18302;SDS011;9277;37.980;23.748;2023-03-14T13:58:28;2.35;;;2.13;;
18302;SDS011;9277;37.980;23.748;2023-03-14T14:00:57;3.10;;;2.40;;
18302;SDS011;9277;37.980;23.748;2023-03-14T14:03:43;3.53;;;2.47;;
18302;SDS011;9277;37.980;23.748;2023-03-14T14:06:19;4.03;;;2.53;;
18302;SDS011;9277;37.980;23.748;2023-03-14T14:08:48;3.05;;;2.45;;
18302;SDS011;9277;37.980;23.748;2023-03-14T14:11:22;5.50;;;2.78;;
18302;SDS011;9277;37.980;23.748;2023-03-14T14:13:51;3.92;;;2.63;;
18302;SDS011;9277;37.980;23.748;2023-03-14T14:16:18;6.15;;;2.40;;
18302;SDS011;9277;37.980;23.748;2023-03-14T14:18:46;4.18;;;2.75;;
18302;SDS011;9277;37.980;23.748;2023-03-14T14:21:15;3.65;;;2.20;;
18302;SDS011;9277;37.980;23.748;2023-03-14T14:23:43;7.95;;;2.35;;
18302;SDS011;9277;37.980;23.748;2023-03-14T14:26:13;5.68;;;2.38;;
18302;SDS011;9277;37.980;23.748;2023-03-14T14:28:41;4.38;;;2.20;;
18302;SDS011;9277;37.980;23.748;2023-03-14T14:31:18;2.30;;;2.03;;
18302;SDS011;9277;37.980;23.748;2023-03-14T14:33:53;4.07;;;2.28;;
18302;SDS011;9277;37.980;23.748;2023-03-14T14:36:22;3.38;;;2.47;;
18302;SDS011;9277;37.980;23.748;2023-03-14T14:38:53;2.40;;;2.20;;
18302;SDS011;9277;37.980;23.748;2023-03-14T14:41:20;4.53;;;2.00;;
18302;SDS011;9277;37.980;23.748;2023-03-14T14:43:48;5.47;;;2.90;;
18302;SDS011;9277;37.980;23.748;2023-03-14T14:46:17;2.50;;;2.30;;
18302;SDS011;9277;37.980;23.748;2023-03-14T14:48:45;2.30;;;2.10;;
18302;SDS011;9277;37.980;23.748;2023-03-14T14:51:30;13.40;;;2.45;;
18302;SDS011;9277;37.980;23.748;2023-03-14T14:54:04;3.90;;;2.20;;
18302;SDS011;9277;37.980;23.748;2023-03-14T14:56:34;4.20;;;2.17;;
18302;SDS011;9277;37.980;23.748;2023-03-14T14:59:02;3.75;;;2.30;;
18302;SDS011;9277;37.980;23.748;2023-03-14T15:01:31;3.75;;;2.33;;
18302;SDS011;9277;37.980;23.748;2023-03-14T15:03:59;5.97;;;2.80;;
18302;SDS011;9277;37.980;23.748;2023-03-14T15:06:29;3.65;;;2.47;;
18302;SDS011;9277;37.980;23.748;2023-03-14T15:08:56;3.47;;;2.50;;
18302;SDS011;9277;37.980;23.748;2023-03-14T15:11:24;3.25;;;2.45;;
18302;SDS011;9277;37.980;23.748;2023-03-14T15:13:51;3.75;;;2.30;;
18302;SDS011;9277;37.980;23.748;2023-03-14T15:16:22;4.45;;;2.58;;